sensor_id;sensor_type;location;lat;lon;timestamp;pressure;altitude;pressure_sealevel;temperature;humidity
83095;BME280;72967;43.674;6.976;2024-01-15T00:00:18;95571.59;;;7.37;66.14
83095;BME280;72967;43.674;6.976;2024-01-15T00:02:46;95558.38;;;7.39;65.94
83095;BME280;72967;43.674;6.976;2024-01-15T00:05:12;95546.94;;;7.33;66.47
83095;BME280;72967;43.674;6.976;2024-01-15T00:07:37;95559.81;;;7.33;66.82
83095;BME280;72967;43.674;6.976;2024-01-15T00:10:03;95547.28;;;7.32;66.23
83095;BME280;72967;43.674;6.976;2024-01-15T00:12:29;95540.75;;;7.36;66.24
83095;BME280;72967;43.674;6.976;2024-01-15T00:14:54;95528.59;;;7.34;66.60
83095;BME280;72967;43.674;6.976;2024-01-15T00:17:20;95519.06;;;7.28;67.25
83095;BME280;72967;43.674;6.976;2024-01-15T00:19:45;95511.59;;;7.24;66.91
83095;BME280;72967;43.674;6.976;2024-01-15T00:22:10;95509.03;;;7.16;66.77
83095;BME280;72967;43.674;6.976;2024-01-15T00:24:36;95508.69;;;7.17;67.68
83095;BME280;72967;43.674;6.976;2024-01-15T00:27:01;95499.69;;;7.17;67.04
83095;BME280;72967;43.674;6.976;2024-01-15T00:29:27;95496.16;;;7.16;67.91
83095;BME280;72967;43.674;6.976;2024-01-15T00:31:52;95498.56;;;7.18;67.13
83095;BME280;72967;43.674;6.976;2024-01-15T00:34:17;95487.19;;;7.16;67.21
83095;BME280;72967;43.674;6.976;2024-01-15T00:36:43;95490.63;;;7.13;67.86
83095;BME280;72967;43.674;6.976;2024-01-15T00:39:08;95484.38;;;7.12;67.96
83095;BME280;72967;43.674;6.976;2024-01-15T00:41:35;95480.16;;;7.15;67.47
83095;BME280;72967;43.674;6.976;2024-01-15T00:44:01;95472.28;;;7.13;66.99
83095;BME280;72967;43.674;6.976;2024-01-15T00:46:28;95470.09;;;7.19;66.73
83095;BME280;72967;43.674;6.976;2024-01-15T00:48:53;95476.63;;;7.14;66.67
83095;BME280;72967;43.674;6.976;2024-01-15T00:51:19;95462.28;;;7.02;67.25
83095;BME280;72967;43.674;6.976;2024-01-15T00:53:44;95470.66;;;6.93;67.38
83095;BME280;72967;43.674;6.976;2024-01-15T00:56:10;95463.78;;;6.99;67.73
83095;BME280;72967;43.674;6.976;2024-01-15T00:58:35;95468.44;;;6.99;67.41
83095;BME280;72967;43.674;6.976;2024-01-15T01:01:00;95461.75;;;6.96;67.25
83095;BME280;72967;43.674;6.976;2024-01-15T01:03:26;95451.88;;;6.92;67.37
83095;BME280;72967;43.674;6.976;2024-01-15T01:05:51;95448.09;;;6.96;67.49
83095;BME280;72967;43.674;6.976;2024-01-15T01:08:17;95449.13;;;7.07;66.50
83095;BME280;72967;43.674;6.976;2024-01-15T01:10:42;95450.00;;;7.11;66.11
83095;BME280;72967;43.674;6.976;2024-01-15T01:13:08;95440.31;;;7.14;66.66
83095;BME280;72967;43.674;6.976;2024-01-15T01:15:34;95421.28;;;7.02;67.11
83095;BME280;72967;43.674;6.976;2024-01-15T01:17:59;95444.88;;;7.10;66.43
83095;BME280;72967;43.674;6.976;2024-01-15T01:20:24;95437.75;;;7.05;67.75
83095;BME280;72967;43.674;6.976;2024-01-15T01:22:50;95453.63;;;7.00;66.85
83095;BME280;72967;43.674;6.976;2024-01-15T01:25:15;95448.44;;;6.95;67.58
83095;BME280;72967;43.674;6.976;2024-01-15T01:27:41;95429.25;;;6.91;66.79
83095;BME280;72967;43.674;6.976;2024-01-15T01:30:06;95439.53;;;6.98;67.95
83095;BME280;72967;43.674;6.976;2024-01-15T01:32:32;95437.09;;;6.93;67.85
83095;BME280;72967;43.674;6.976;2024-01-15T01:34:57;95409.47;;;6.78;67.26
83095;BME280;72967;43.674;6.976;2024-01-15T01:37:23;95429.59;;;6.90;67.69
83095;BME280;72967;43.674;6.976;2024-01-15T01:39:48;95430.50;;;6.78;68.00
83095;BME280;72967;43.674;6.976;2024-01-15T01:42:14;95431.31;;;6.78;68.64
83095;BME280;72967;43.674;6.976;2024-01-15T01:44:39;95432.28;;;6.70;68.49
83095;BME280;72967;43.674;6.976;2024-01-15T01:47:05;95428.22;;;6.64;69.05
83095;BME280;72967;43.674;6.976;2024-01-15T01:49:31;95420.53;;;6.70;69.15
83095;BME280;72967;43.674;6.976;2024-01-15T01:51:58;95419.75;;;6.69;68.93
83095;BME280;72967;43.674;6.976;2024-01-15T01:54:27;95409.47;;;6.63;68.63
83095;BME280;72967;43.674;6.976;2024-01-15T01:56:54;95401.34;;;6.66;69.35
83095;BME280;72967;43.674;6.976;2024-01-15T01:59:21;95388.41;;;6.63;68.71
83095;BME280;72967;43.674;6.976;2024-01-15T02:01:48;95401.72;;;6.65;68.49
83095;BME280;72967;43.674;6.976;2024-01-15T02:04:15;95395.66;;;6.56;68.80
83095;BME280;72967;43.674;6.976;2024-01-15T02:06:41;95368.97;;;6.49;69.37
83095;BME280;72967;43.674;6.976;2024-01-15T02:09:07;95379.50;;;6.66;69.28
83095;BME280;72967;43.674;6.976;2024-01-15T02:11:33;95366.56;;;6.63;69.57
83095;BME280;72967;43.674;6.976;2024-01-15T02:13:59;95383.38;;;6.65;70.13
83095;BME280;72967;43.674;6.976;2024-01-15T02:16:24;95373.34;;;6.69;70.92
83095;BME280;72967;43.674;6.976;2024-01-15T02:18:50;95355.19;;;6.77;70.73
83095;BME280;72967;43.674;6.976;2024-01-15T02:21:15;95373.84;;;6.75;70.43
83095;BME280;72967;43.674;6.976;2024-01-15T02:23:40;95375.66;;;6.67;70.07
83095;BME280;72967;43.674;6.976;2024-01-15T02:26:07;95368.78;;;6.58;70.79
83095;BME280;72967;43.674;6.976;2024-01-15T02:28:33;95336.06;;;6.42;70.62
83095;BME280;72967;43.674;6.976;2024-01-15T02:30:59;95341.91;;;6.60;70.69
83095;BME280;72967;43.674;6.976;2024-01-15T02:33:24;95367.09;;;6.53;71.23
83095;BME280;72967;43.674;6.976;2024-01-15T02:35:50;95362.81;;;6.52;71.14
83095;BME280;72967;43.674;6.976;2024-01-15T02:38:16;95349.84;;;6.49;70.55
83095;BME280;72967;43.674;6.976;2024-01-15T02:40:43;95351.91;;;6.52;69.87
83095;BME280;72967;43.674;6.976;2024-01-15T02:43:09;95348.72;;;6.50;70.29
83095;BME280;72967;43.674;6.976;2024-01-15T02:45:34;95347.06;;;6.46;71.41
83095;BME280;72967;43.674;6.976;2024-01-15T02:48:00;95342.47;;;6.50;72.31
83095;BME280;72967;43.674;6.976;2024-01-15T02:50:26;95341.50;;;6.58;72.67
83095;BME280;72967;43.674;6.976;2024-01-15T02:52:51;95339.41;;;6.70;71.88
83095;BME280;72967;43.674;6.976;2024-01-15T02:55:17;95349.19;;;6.71;71.89
83095;BME280;72967;43.674;6.976;2024-01-15T02:57:42;95352.28;;;6.70;72.65
83095;BME280;72967;43.674;6.976;2024-01-15T03:00:08;95341.72;;;6.68;72.57
83095;BME280;72967;43.674;6.976;2024-01-15T03:02:37;95338.22;;;6.68;73.72
83095;BME280;72967;43.674;6.976;2024-01-15T03:05:06;95349.13;;;6.68;72.86
83095;BME280;72967;43.674;6.976;2024-01-15T03:07:33;95335.09;;;6.69;73.27
83095;BME280;72967;43.674;6.976;2024-01-15T03:09:59;95326.63;;;6.74;73.51
83095;BME280;72967;43.674;6.976;2024-01-15T03:12:24;95332.66;;;6.64;74.08
83095;BME280;72967;43.674;6.976;2024-01-15T03:14:49;95323.84;;;6.71;73.43
83095;BME280;72967;43.674;6.976;2024-01-15T03:17:15;95309.66;;;6.65;74.01
83095;BME280;72967;43.674;6.976;2024-01-15T03:19:40;95319.88;;;6.68;74.19
83095;BME280;72967;43.674;6.976;2024-01-15T03:22:06;95312.13;;;6.70;74.44
83095;BME280;72967;43.674;6.976;2024-01-15T03:24:34;95286.00;;;6.54;74.63
83095;BME280;72967;43.674;6.976;2024-01-15T03:27:00;95301.53;;;6.69;74.85
83095;BME280;72967;43.674;6.976;2024-01-15T03:29:26;95304.66;;;6.67;75.06
83095;BME280;72967;43.674;6.976;2024-01-15T03:31:51;95307.91;;;6.73;74.51
83095;BME280;72967;43.674;6.976;2024-01-15T03:34:17;95305.22;;;6.76;74.29
83095;BME280;72967;43.674;6.976;2024-01-15T03:36:42;95307.78;;;6.69;74.39
83095;BME280;72967;43.674;6.976;2024-01-15T03:39:08;95294.25;;;6.73;74.25
83095;BME280;72967;43.674;6.976;2024-01-15T03:41:33;95286.84;;;6.73;74.55
83095;BME280;72967;43.674;6.976;2024-01-15T03:43:58;95280.94;;;6.71;74.41
83095;BME280;72967;43.674;6.976;2024-01-15T03:46:24;95277.34;;;6.67;75.32
83095;BME280;72967;43.674;6.976;2024-01-15T03:48:50;95297.59;;;6.66;74.79
83095;BME280;72967;43.674;6.976;2024-01-15T03:51:17;95286.53;;;6.59;75.48
83095;BME280;72967;43.674;6.976;2024-01-15T03:53:42;95286.22;;;6.64;75.62
83095;BME280;72967;43.674;6.976;2024-01-15T03:56:08;95273.59;;;6.56;75.28
83095;BME280;72967;43.674;6.976;2024-01-15T03:58:33;95276.75;;;6.58;75.26
83095;BME280;72967;43.674;6.976;2024-01-15T04:00:59;95262.94;;;6.51;75.37
83095;BME280;72967;43.674;6.976;2024-01-15T04:03:24;95269.00;;;6.60;75.48
83095;BME280;72967;43.674;6.976;2024-01-15T04:05:49;95273.94;;;6.55;75.58
83095;BME280;72967;43.674;6.976;2024-01-15T04:08:15;95282.56;;;6.57;75.34
83095;BME280;72967;43.674;6.976;2024-01-15T04:10:40;95280.72;;;6.61;75.07
83095;BME280;72967;43.674;6.976;2024-01-15T04:13:06;95291.84;;;6.52;75.10
83095;BME280;72967;43.674;6.976;2024-01-15T04:15:32;95297.03;;;6.57;75.76
83095;BME280;72967;43.674;6.976;2024-01-15T04:17:57;95295.44;;;6.56;75.60
83095;BME280;72967;43.674;6.976;2024-01-15T04:20:23;95285.59;;;6.52;76.07
83095;BME280;72967;43.674;6.976;2024-01-15T04:22:48;95290.38;;;6.58;75.68
83095;BME280;72967;43.674;6.976;2024-01-15T04:25:14;95298.22;;;6.60;75.15
83095;BME280;72967;43.674;6.976;2024-01-15T04:27:39;95298.75;;;6.65;75.07
83095;BME280;72967;43.674;6.976;2024-01-15T04:30:05;95301.19;;;6.70;75.28
83095;BME280;72967;43.674;6.976;2024-01-15T04:32:30;95300.50;;;6.73;75.31
83095;BME280;72967;43.674;6.976;2024-01-15T04:34:56;95294.31;;;6.76;74.97
83095;BME280;72967;43.674;6.976;2024-01-15T04:37:21;95298.69;;;6.81;75.04
83095;BME280;72967;43.674;6.976;2024-01-15T04:39:46;95293.50;;;6.76;75.44
83095;BME280;72967;43.674;6.976;2024-01-15T04:42:12;95297.97;;;6.84;75.12
83095;BME280;72967;43.674;6.976;2024-01-15T04:44:37;95298.75;;;6.84;75.88
83095;BME280;72967;43.674;6.976;2024-01-15T04:47:03;95301.94;;;6.87;74.74
83095;BME280;72967;43.674;6.976;2024-01-15T04:49:28;95298.34;;;6.82;75.60
83095;BME280;72967;43.674;6.976;2024-01-15T04:51:55;95294.19;;;6.89;75.66
83095;BME280;72967;43.674;6.976;2024-01-15T04:54:20;95318.78;;;6.89;75.10
83095;BME280;72967;43.674;6.976;2024-01-15T04:56:46;95318.47;;;6.94;74.99
83095;BME280;72967;43.674;6.976;2024-01-15T04:59:13;95324.22;;;6.89;75.23
83095;BME280;72967;43.674;6.976;2024-01-15T05:01:39;95320.78;;;6.92;75.25
83095;BME280;72967;43.674;6.976;2024-01-15T05:04:05;95312.41;;;6.84;75.58
83095;BME280;72967;43.674;6.976;2024-01-15T05:06:30;95316.66;;;6.82;75.99
83095;BME280;72967;43.674;6.976;2024-01-15T05:08:56;95313.06;;;6.78;75.61
83095;BME280;72967;43.674;6.976;2024-01-15T05:11:21;95320.97;;;6.83;75.45
83095;BME280;72967;43.674;6.976;2024-01-15T05:13:46;95317.00;;;6.80;75.44
83095;BME280;72967;43.674;6.976;2024-01-15T05:16:12;95330.31;;;6.82;75.23
83095;BME280;72967;43.674;6.976;2024-01-15T05:18:37;95330.03;;;6.87;75.34
83095;BME280;72967;43.674;6.976;2024-01-15T05:21:03;95326.22;;;6.92;74.64
83095;BME280;72967;43.674;6.976;2024-01-15T05:23:31;95323.00;;;6.86;74.96
83095;BME280;72967;43.674;6.976;2024-01-15T05:25:56;95312.50;;;6.88;74.57
83095;BME280;72967;43.674;6.976;2024-01-15T05:28:22;95311.19;;;6.82;74.54
83095;BME280;72967;43.674;6.976;2024-01-15T05:30:47;95311.19;;;6.82;75.57
83095;BME280;72967;43.674;6.976;2024-01-15T05:33:13;95306.94;;;6.84;75.33
83095;BME280;72967;43.674;6.976;2024-01-15T05:35:39;95306.16;;;6.84;75.03
83095;BME280;72967;43.674;6.976;2024-01-15T05:38:04;95315.53;;;6.83;74.69
83095;BME280;72967;43.674;6.976;2024-01-15T05:40:29;95313.38;;;6.92;73.84
83095;BME280;72967;43.674;6.976;2024-01-15T05:42:55;95325.88;;;6.93;74.97
83095;BME280;72967;43.674;6.976;2024-01-15T05:45:20;95318.84;;;6.92;74.47
83095;BME280;72967;43.674;6.976;2024-01-15T05:47:46;95290.34;;;6.74;74.63
83095;BME280;72967;43.674;6.976;2024-01-15T05:50:11;95320.69;;;6.88;74.17
83095;BME280;72967;43.674;6.976;2024-01-15T05:52:37;95323.06;;;6.90;74.53
83095;BME280;72967;43.674;6.976;2024-01-15T05:55:02;95325.50;;;6.95;74.99
83095;BME280;72967;43.674;6.976;2024-01-15T05:57:28;95325.88;;;6.93;73.98
83095;BME280;72967;43.674;6.976;2024-01-15T05:59:54;95327.47;;;6.94;73.50
83095;BME280;72967;43.674;6.976;2024-01-15T06:02:19;95330.41;;;7.05;72.40
83095;BME280;72967;43.674;6.976;2024-01-15T06:04:45;95325.72;;;7.05;72.06
83095;BME280;72967;43.674;6.976;2024-01-15T06:07:10;95318.41;;;7.09;72.48
83095;BME280;72967;43.674;6.976;2024-01-15T06:09:36;95329.53;;;7.01;72.77
83095;BME280;72967;43.674;6.976;2024-01-15T06:12:01;95324.94;;;7.05;71.42
83095;BME280;72967;43.674;6.976;2024-01-15T06:14:27;95312.34;;;7.00;71.51
83095;BME280;72967;43.674;6.976;2024-01-15T06:16:52;95296.19;;;6.92;72.32
83095;BME280;72967;43.674;6.976;2024-01-15T06:19:18;95313.50;;;6.80;72.40
83095;BME280;72967;43.674;6.976;2024-01-15T06:21:43;95308.88;;;6.65;73.98
83095;BME280;72967;43.674;6.976;2024-01-15T06:24:08;95299.69;;;6.38;74.00
83095;BME280;72967;43.674;6.976;2024-01-15T06:26:35;95299.34;;;6.39;73.84
83095;BME280;72967;43.674;6.976;2024-01-15T06:29:01;95295.03;;;6.38;73.42
83095;BME280;72967;43.674;6.976;2024-01-15T06:31:26;95297.06;;;6.42;73.44
83095;BME280;72967;43.674;6.976;2024-01-15T06:33:52;95301.25;;;6.55;72.82
83095;BME280;72967;43.674;6.976;2024-01-15T06:36:18;95298.84;;;6.53;72.47
83095;BME280;72967;43.674;6.976;2024-01-15T06:38:43;95309.41;;;6.35;72.67
83095;BME280;72967;43.674;6.976;2024-01-15T06:41:09;95297.31;;;6.52;71.45
83095;BME280;72967;43.674;6.976;2024-01-15T06:43:35;95292.97;;;6.51;70.29
83095;BME280;72967;43.674;6.976;2024-01-15T06:46:00;95309.94;;;6.60;70.75
83095;BME280;72967;43.674;6.976;2024-01-15T06:48:26;95312.41;;;6.65;70.28
83095;BME280;72967;43.674;6.976;2024-01-15T06:50:51;95293.44;;;6.72;69.43
83095;BME280;72967;43.674;6.976;2024-01-15T06:53:17;95301.34;;;6.77;68.19
83095;BME280;72967;43.674;6.976;2024-01-15T06:55:42;95293.81;;;6.90;68.03
83095;BME280;72967;43.674;6.976;2024-01-15T06:58:07;95285.25;;;6.72;68.67
83095;BME280;72967;43.674;6.976;2024-01-15T07:00:33;95269.44;;;6.81;66.70
83095;BME280;72967;43.674;6.976;2024-01-15T07:02:58;95288.94;;;6.99;67.08
83095;BME280;72967;43.674;6.976;2024-01-15T07:05:24;95302.31;;;7.04;67.24
83095;BME280;72967;43.674;6.976;2024-01-15T07:07:49;95297.03;;;6.96;66.80
83095;BME280;72967;43.674;6.976;2024-01-15T07:10:16;95307.03;;;7.07;65.87
83095;BME280;72967;43.674;6.976;2024-01-15T07:12:42;95318.13;;;7.14;65.93
83095;BME280;72967;43.674;6.976;2024-01-15T07:15:08;95320.13;;;7.17;66.62
83095;BME280;72967;43.674;6.976;2024-01-15T07:17:35;95318.03;;;7.11;66.74
83095;BME280;72967;43.674;6.976;2024-01-15T07:20:00;95327.03;;;7.11;66.28
83095;BME280;72967;43.674;6.976;2024-01-15T07:22:26;95330.09;;;7.10;67.41
83095;BME280;72967;43.674;6.976;2024-01-15T07:24:52;95337.03;;;7.04;67.25
83095;BME280;72967;43.674;6.976;2024-01-15T07:27:17;95332.22;;;6.97;67.40
83095;BME280;72967;43.674;6.976;2024-01-15T07:29:43;95336.94;;;7.00;67.74
83095;BME280;72967;43.674;6.976;2024-01-15T07:32:09;95343.47;;;6.96;68.00
83095;BME280;72967;43.674;6.976;2024-01-15T07:34:35;95342.69;;;6.95;67.74
83095;BME280;72967;43.674;6.976;2024-01-15T07:37:01;95343.13;;;6.97;68.03
83095;BME280;72967;43.674;6.976;2024-01-15T07:39:26;95333.50;;;7.03;68.42
83095;BME280;72967;43.674;6.976;2024-01-15T07:41:54;95337.53;;;7.09;68.71
83095;BME280;72967;43.674;6.976;2024-01-15T07:44:19;95340.28;;;7.09;68.60
83095;BME280;72967;43.674;6.976;2024-01-15T07:46:48;95338.06;;;7.15;68.31
83095;BME280;72967;43.674;6.976;2024-01-15T07:49:13;95323.59;;;7.14;68.53
83095;BME280;72967;43.674;6.976;2024-01-15T07:51:39;95320.00;;;7.30;67.72
83095;BME280;72967;43.674;6.976;2024-01-15T07:54:06;95327.69;;;7.24;68.56
83095;BME280;72967;43.674;6.976;2024-01-15T07:56:32;95329.53;;;7.39;67.31
83095;BME280;72967;43.674;6.976;2024-01-15T07:58:57;95329.59;;;7.43;66.25
83095;BME280;72967;43.674;6.976;2024-01-15T08:01:23;95323.84;;;7.48;66.53
83095;BME280;72967;43.674;6.976;2024-01-15T08:03:48;95331.59;;;7.65;66.40
83095;BME280;72967;43.674;6.976;2024-01-15T08:06:14;95333.09;;;7.82;65.94
83095;BME280;72967;43.674;6.976;2024-01-15T08:08:40;95320.56;;;7.81;65.24
83095;BME280;72967;43.674;6.976;2024-01-15T08:11:05;95329.31;;;7.90;65.79
83095;BME280;72967;43.674;6.976;2024-01-15T08:13:31;95327.09;;;7.99;64.81
83095;BME280;72967;43.674;6.976;2024-01-15T08:15:56;95332.34;;;8.07;64.92
83095;BME280;72967;43.674;6.976;2024-01-15T08:18:21;95328.69;;;8.00;65.01
83095;BME280;72967;43.674;6.976;2024-01-15T08:20:47;95334.34;;;8.10;64.64
83095;BME280;72967;43.674;6.976;2024-01-15T08:23:13;95339.97;;;8.18;64.12
83095;BME280;72967;43.674;6.976;2024-01-15T08:25:38;95330.69;;;8.26;64.29
83095;BME280;72967;43.674;6.976;2024-01-15T08:28:04;95335.53;;;8.32;63.89
83095;BME280;72967;43.674;6.976;2024-01-15T08:30:29;95340.69;;;8.37;63.84
83095;BME280;72967;43.674;6.976;2024-01-15T08:32:55;95333.69;;;8.40;64.46
83095;BME280;72967;43.674;6.976;2024-01-15T08:35:21;95343.13;;;8.42;64.76
83095;BME280;72967;43.674;6.976;2024-01-15T08:37:50;95343.59;;;8.48;65.05
83095;BME280;72967;43.674;6.976;2024-01-15T08:40:16;95341.28;;;8.50;64.72
83095;BME280;72967;43.674;6.976;2024-01-15T08:42:42;95349.56;;;8.53;64.69
83095;BME280;72967;43.674;6.976;2024-01-15T08:45:08;95343.69;;;8.55;64.37
83095;BME280;72967;43.674;6.976;2024-01-15T08:47:34;95341.03;;;8.59;64.05
83095;BME280;72967;43.674;6.976;2024-01-15T08:50:00;95322.16;;;8.53;64.38
83095;BME280;72967;43.674;6.976;2024-01-15T08:52:25;95343.84;;;8.66;64.36
83095;BME280;72967;43.674;6.976;2024-01-15T08:54:51;95346.28;;;8.71;63.43
83095;BME280;72967;43.674;6.976;2024-01-15T08:57:17;95323.75;;;8.55;64.01
83095;BME280;72967;43.674;6.976;2024-01-15T08:59:42;95334.25;;;8.75;64.13
83095;BME280;72967;43.674;6.976;2024-01-15T09:02:07;95319.75;;;8.75;64.07
83095;BME280;72967;43.674;6.976;2024-01-15T09:04:33;95325.59;;;8.73;63.86
83095;BME280;72967;43.674;6.976;2024-01-15T09:07:02;95322.97;;;8.80;62.91
83095;BME280;72967;43.674;6.976;2024-01-15T09:09:27;95329.63;;;8.83;62.96
83095;BME280;72967;43.674;6.976;2024-01-15T09:11:53;95332.50;;;8.64;63.35
83095;BME280;72967;43.674;6.976;2024-01-15T09:14:18;95343.34;;;8.83;63.43
83095;BME280;72967;43.674;6.976;2024-01-15T09:16:43;95340.31;;;8.91;63.36
83095;BME280;72967;43.674;6.976;2024-01-15T09:19:09;95341.22;;;8.99;62.79
83095;BME280;72967;43.674;6.976;2024-01-15T09:21:34;95355.44;;;9.08;62.38
83095;BME280;72967;43.674;6.976;2024-01-15T09:24:00;95350.00;;;9.12;61.80
83095;BME280;72967;43.674;6.976;2024-01-15T09:26:25;95349.22;;;9.11;61.17
83095;BME280;72967;43.674;6.976;2024-01-15T09:28:51;95351.97;;;9.11;59.96
83095;BME280;72967;43.674;6.976;2024-01-15T09:31:17;95335.69;;;9.25;58.86
83095;BME280;72967;43.674;6.976;2024-01-15T09:33:43;95332.56;;;9.27;57.42
83095;BME280;72967;43.674;6.976;2024-01-15T09:36:09;95322.16;;;9.43;57.46
83095;BME280;72967;43.674;6.976;2024-01-15T09:38:34;95325.75;;;9.47;57.39
83095;BME280;72967;43.674;6.976;2024-01-15T09:41:00;95318.44;;;9.58;56.81
83095;BME280;72967;43.674;6.976;2024-01-15T09:43:26;95319.72;;;9.68;56.63
83095;BME280;72967;43.674;6.976;2024-01-15T09:45:52;95325.25;;;9.71;56.11
83095;BME280;72967;43.674;6.976;2024-01-15T09:48:18;95315.88;;;9.76;55.56
83095;BME280;72967;43.674;6.976;2024-01-15T09:50:44;95307.75;;;9.87;56.02
83095;BME280;72967;43.674;6.976;2024-01-15T09:53:11;95321.16;;;9.95;55.52
83095;BME280;72967;43.674;6.976;2024-01-15T09:55:37;95313.69;;;9.92;54.71
83095;BME280;72967;43.674;6.976;2024-01-15T09:58:03;95315.03;;;10.09;54.37
83095;BME280;72967;43.674;6.976;2024-01-15T10:00:29;95305.69;;;10.17;53.93
83095;BME280;72967;43.674;6.976;2024-01-15T10:02:58;95322.63;;;10.22;54.59
83095;BME280;72967;43.674;6.976;2024-01-15T10:05:26;95325.38;;;10.26;54.71
83095;BME280;72967;43.674;6.976;2024-01-15T10:07:53;95304.69;;;10.36;54.24
83095;BME280;72967;43.674;6.976;2024-01-15T10:10:19;95305.53;;;10.43;54.73
83095;BME280;72967;43.674;6.976;2024-01-15T10:12:47;95297.28;;;10.47;54.14
83095;BME280;72967;43.674;6.976;2024-01-15T10:15:13;95296.53;;;10.46;53.92
83095;BME280;72967;43.674;6.976;2024-01-15T10:17:39;95296.97;;;10.55;53.81
83095;BME280;72967;43.674;6.976;2024-01-15T10:20:08;95297.78;;;10.59;53.78
83095;BME280;72967;43.674;6.976;2024-01-15T10:22:35;95255.28;;;10.39;53.53
83095;BME280;72967;43.674;6.976;2024-01-15T10:25:03;95284.53;;;10.72;53.22
83095;BME280;72967;43.674;6.976;2024-01-15T10:27:29;95289.69;;;10.77;53.77
83095;BME280;72967;43.674;6.976;2024-01-15T10:29:59;95277.91;;;10.84;53.09
83095;BME280;72967;43.674;6.976;2024-01-15T10:32:24;95281.50;;;10.98;53.08
83095;BME280;72967;43.674;6.976;2024-01-15T10:34:52;95281.19;;;11.14;54.06
83095;BME280;72967;43.674;6.976;2024-01-15T10:37:18;95287.13;;;11.16;53.68
83095;BME280;72967;43.674;6.976;2024-01-15T10:39:43;95286.78;;;11.28;53.48
83095;BME280;72967;43.674;6.976;2024-01-15T10:42:09;95263.97;;;11.31;53.03
83095;BME280;72967;43.674;6.976;2024-01-15T10:44:35;95268.69;;;11.31;53.73
83095;BME280;72967;43.674;6.976;2024-01-15T10:47:02;95267.53;;;11.35;52.69
83095;BME280;72967;43.674;6.976;2024-01-15T10:49:29;95282.50;;;11.38;52.17
83095;BME280;72967;43.674;6.976;2024-01-15T10:51:56;95252.22;;;11.38;52.60
83095;BME280;72967;43.674;6.976;2024-01-15T10:54:22;95260.84;;;11.40;52.24
83095;BME280;72967;43.674;6.976;2024-01-15T10:56:50;95254.63;;;11.50;52.21
83095;BME280;72967;43.674;6.976;2024-01-15T10:59:19;95258.97;;;11.58;52.48
83095;BME280;72967;43.674;6.976;2024-01-15T11:01:45;95258.19;;;11.65;51.64
83095;BME280;72967;43.674;6.976;2024-01-15T11:04:12;95257.78;;;11.66;51.95
83095;BME280;72967;43.674;6.976;2024-01-15T11:06:56;95249.94;;;11.72;52.04
83095;BME280;72967;43.674;6.976;2024-01-15T11:09:21;95227.91;;;11.68;52.47
83095;BME280;72967;43.674;6.976;2024-01-15T11:11:52;95235.84;;;11.80;52.05
83095;BME280;72967;43.674;6.976;2024-01-15T11:14:50;95233.09;;;11.98;52.60
83095;BME280;72967;43.674;6.976;2024-01-15T11:17:17;95237.44;;;12.06;52.80
83095;BME280;72967;43.674;6.976;2024-01-15T11:19:44;95236.22;;;12.14;52.70
83095;BME280;72967;43.674;6.976;2024-01-15T11:24:56;95223.63;;;12.24;52.57
83095;BME280;72967;43.674;6.976;2024-01-15T11:27:44;95215.38;;;12.20;52.70
83095;BME280;72967;43.674;6.976;2024-01-15T11:30:12;95220.47;;;12.29;54.05
83095;BME280;72967;43.674;6.976;2024-01-15T11:32:38;95216.94;;;12.35;53.54
83095;BME280;72967;43.674;6.976;2024-01-15T11:35:08;95209.03;;;12.45;53.33
83095;BME280;72967;43.674;6.976;2024-01-15T11:42:45;95199.56;;;12.67;53.02
83095;BME280;72967;43.674;6.976;2024-01-15T11:45:11;95161.38;;;12.55;53.05
83095;BME280;72967;43.674;6.976;2024-01-15T11:50:40;95185.28;;;12.86;51.56
83095;BME280;72967;43.674;6.976;2024-01-15T11:55:41;95178.94;;;12.96;52.09
83095;BME280;72967;43.674;6.976;2024-01-15T11:58:10;95165.97;;;12.93;51.68
83095;BME280;72967;43.674;6.976;2024-01-15T12:00:48;95167.50;;;13.05;50.74
83095;BME280;72967;43.674;6.976;2024-01-15T12:03:17;95170.25;;;13.15;51.53
83095;BME280;72967;43.674;6.976;2024-01-15T12:05:45;95170.63;;;13.14;52.04
83095;BME280;72967;43.674;6.976;2024-01-15T12:08:11;95165.91;;;13.07;52.59
83095;BME280;72967;43.674;6.976;2024-01-15T12:10:40;95158.00;;;13.20;52.13
83095;BME280;72967;43.674;6.976;2024-01-15T12:15:38;95158.38;;;13.22;51.12
83095;BME280;72967;43.674;6.976;2024-01-15T12:18:07;95148.41;;;13.39;46.26
83095;BME280;72967;43.674;6.976;2024-01-15T12:20:33;95143.13;;;13.62;47.08
83095;BME280;72967;43.674;6.976;2024-01-15T12:22:59;95131.22;;;13.72;47.30
83095;BME280;72967;43.674;6.976;2024-01-15T12:25:25;95139.78;;;14.29;39.68
83095;BME280;72967;43.674;6.976;2024-01-15T12:27:54;95136.28;;;14.63;38.29
83095;BME280;72967;43.674;6.976;2024-01-15T12:30:20;95147.66;;;15.06;36.17
83095;BME280;72967;43.674;6.976;2024-01-15T12:32:46;95118.75;;;15.37;35.91
83095;BME280;72967;43.674;6.976;2024-01-15T12:35:14;95106.53;;;15.61;35.14
83095;BME280;72967;43.674;6.976;2024-01-15T12:37:43;95104.13;;;15.63;34.09
83095;BME280;72967;43.674;6.976;2024-01-15T12:40:12;95108.66;;;15.77;34.25
83095;BME280;72967;43.674;6.976;2024-01-15T12:42:39;95097.63;;;15.97;33.91
83095;BME280;72967;43.674;6.976;2024-01-15T12:45:06;95093.78;;;15.91;34.22
83095;BME280;72967;43.674;6.976;2024-01-15T12:47:31;95090.44;;;15.80;33.67
83095;BME280;72967;43.674;6.976;2024-01-15T12:49:57;95084.19;;;15.72;34.18
83095;BME280;72967;43.674;6.976;2024-01-15T12:52:26;95094.75;;;15.81;34.18
83095;BME280;72967;43.674;6.976;2024-01-15T12:54:52;95081.31;;;15.79;33.61
83095;BME280;72967;43.674;6.976;2024-01-15T12:57:17;95075.47;;;15.73;34.55
83095;BME280;72967;43.674;6.976;2024-01-15T12:59:43;95074.63;;;15.77;33.79
83095;BME280;72967;43.674;6.976;2024-01-15T13:02:13;95073.13;;;15.72;34.90
83095;BME280;72967;43.674;6.976;2024-01-15T13:04:39;95068.38;;;15.72;34.11
83095;BME280;72967;43.674;6.976;2024-01-15T13:07:08;95082.69;;;15.67;34.29
83095;BME280;72967;43.674;6.976;2024-01-15T13:09:34;95062.81;;;15.72;34.62
83095;BME280;72967;43.674;6.976;2024-01-15T13:12:03;95085.41;;;15.71;34.30
83095;BME280;72967;43.674;6.976;2024-01-15T13:14:29;95101.63;;;15.72;33.50
83095;BME280;72967;43.674;6.976;2024-01-15T13:16:55;95087.66;;;15.80;34.34